Retreat, Georgia
Current Conditions -  °F | °C
As of 10:58 PM on Thursday 18 Dec 2014 (Local Time) from KLHW Reporting Station
Scattered Clouds Scattered Clouds  
Wind Chill: 45°   Ceiling: Unl
Heat Index: 45°   Visibility: 10mi
Dew Point: 40°   Wind: 0mph
Humidity: 83%   Direction: NA
Pressure: 30.11"   Gusts: NA
Location:  31.7217°N, 81.4475°W
Report Text: KLHW 190358Z AUTO 00000KT 10SM SCT120 07/04 A3011 RMK AO2 SLP199 T00700043
Loading
Personal Weather Stations






























Interactive Weather Map New forecast layout! Learn more

10-Day Weather Forecast

Advertisements
Track Severe Weather on mobile